createdAt,value
2022-09-15T00:03:13.584Z,17.06
2022-09-15T00:08:16.856Z,17.01
2022-09-15T00:13:21.856Z,16.96
2022-09-15T00:18:25.939Z,16.97
2022-09-15T00:23:28.928Z,17.00
2022-09-15T00:28:32.625Z,17.05
2022-09-15T00:33:36.790Z,17.04
2022-09-15T00:38:41.095Z,17.03
2022-09-15T00:43:52.533Z,16.98
2022-09-15T00:49:30.231Z,17.01
2022-09-15T00:55:08.572Z,17.01
2022-09-15T01:00:16.269Z,17.08
2022-09-15T01:05:23.478Z,17.14
2022-09-15T01:10:37.239Z,17.15
2022-09-15T01:22:13.515Z,17.08
2022-09-15T01:27:58.971Z,17.13
2022-09-15T01:33:26.012Z,17.21
2022-09-15T01:39:02.627Z,17.23
2022-09-15T01:44:09.215Z,17.20
2022-09-15T01:49:17.657Z,17.14
2022-09-15T01:54:29.032Z,17.12
2022-09-15T01:59:32.004Z,17.14
2022-09-15T02:05:25.474Z,17.19
2022-09-15T02:11:30.589Z,17.21
2022-09-15T02:16:36.110Z,17.19
2022-09-15T02:22:12.807Z,17.13
2022-09-15T02:27:29.144Z,17.11
2022-09-15T02:32:35.200Z,17.14
2022-09-15T02:37:39.158Z,17.15
2022-09-15T02:42:53.835Z,17.18
2022-09-15T02:48:00.355Z,17.08
2022-09-15T02:53:04.339Z,17.00
2022-09-15T02:58:07.581Z,16.97
2022-09-15T03:03:10.433Z,16.94
2022-09-15T03:08:14.096Z,16.90
2022-09-15T03:13:18.660Z,16.92
2022-09-15T03:18:21.625Z,16.94
2022-09-15T03:23:24.587Z,16.93
2022-09-15T03:28:28.501Z,16.90
2022-09-15T03:33:31.614Z,16.88
2022-09-15T03:38:35.009Z,16.87
2022-09-15T03:43:39.408Z,16.91
2022-09-15T03:48:42.366Z,17.01
2022-09-15T03:53:45.373Z,17.07
2022-09-15T03:58:48.496Z,17.04
2022-09-15T04:03:51.904Z,16.98
2022-09-15T04:08:55.833Z,16.93
2022-09-15T04:13:59.051Z,16.98
2022-09-15T04:19:01.886Z,17.06
2022-09-15T04:24:06.593Z,17.10
2022-09-15T04:29:16.515Z,17.11
2022-09-15T04:34:19.552Z,17.10
2022-09-15T04:39:22.622Z,17.10
2022-09-15T04:44:25.597Z,17.11
2022-09-15T04:49:29.227Z,17.14
2022-09-15T04:54:35.053Z,17.14
2022-09-15T04:59:38.363Z,17.10
2022-09-15T05:04:41.464Z,17.05
2022-09-15T05:09:44.483Z,17.05
2022-09-15T05:14:47.435Z,17.09
2022-09-15T05:19:50.401Z,17.19
2022-09-15T05:24:53.476Z,17.27
2022-09-15T05:30:10.879Z,17.31
2022-09-15T05:35:20.139Z,17.24
2022-09-15T05:40:23.227Z,17.23
2022-09-15T05:45:26.185Z,17.23
2022-09-15T05:50:29.224Z,17.23
2022-09-15T05:55:38.146Z,17.23
2022-09-15T06:00:42.641Z,17.17
2022-09-15T06:05:45.858Z,17.09
2022-09-15T06:10:48.825Z,17.00
2022-09-15T06:15:51.806Z,16.98
2022-09-15T06:20:54.840Z,16.93
2022-09-15T06:26:05.326Z,16.90
2022-09-15T06:31:13.625Z,16.93
2022-09-15T06:36:17.107Z,16.99
2022-09-15T06:41:20.579Z,16.99
2022-09-15T06:46:26.748Z,16.88
2022-09-15T06:51:35.489Z,16.79
2022-09-15T06:56:38.679Z,16.75
2022-09-15T07:01:43.150Z,16.73
2022-09-15T07:06:46.246Z,16.68
2022-09-15T07:11:49.295Z,16.76
2022-09-15T07:16:52.262Z,16.76
2022-09-15T07:21:55.240Z,16.73
2022-09-15T07:26:58.530Z,16.77
2022-09-15T07:32:02.416Z,16.83
2022-09-15T07:37:06.470Z,16.89
2022-09-15T07:42:09.635Z,16.92
2022-09-15T07:47:12.599Z,16.95
2022-09-15T07:52:17.546Z,16.95
2022-09-15T07:57:21.490Z,17.05
2022-09-15T08:02:39.782Z,17.13
2022-09-15T08:08:06.661Z,17.24
2022-09-15T08:13:12.402Z,17.29
2022-09-15T08:18:23.335Z,17.33
2022-09-15T08:23:26.786Z,17.43
2022-09-15T08:28:29.744Z,17.47
2022-09-15T08:33:33.905Z,17.48
2022-09-15T08:38:39.591Z,17.54
2022-09-15T08:43:55.361Z,17.56
2022-09-15T08:49:13.241Z,17.66
2022-09-15T08:54:25.455Z,17.77
2022-09-15T08:59:35.333Z,17.90
2022-09-15T09:05:29.726Z,17.89
2022-09-15T09:10:56.886Z,17.82
2022-09-15T09:16:34.028Z,17.70
2022-09-15T09:21:46.703Z,17.61
2022-09-15T09:26:55.480Z,17.70
2022-09-15T09:31:59.596Z,17.68
2022-09-15T09:37:16.108Z,17.63
2022-09-15T09:42:19.847Z,17.66
2022-09-15T09:47:29.845Z,17.73
2022-09-15T09:52:39.937Z,17.72
2022-09-15T09:57:42.951Z,17.69
2022-09-15T10:02:49.033Z,17.61
2022-09-15T10:07:52.128Z,17.53
2022-09-15T10:12:56.829Z,17.60
2022-09-15T10:18:01.867Z,17.75
2022-09-15T10:23:34.356Z,17.92
2022-09-15T10:28:37.656Z,18.08
2022-09-15T10:33:45.181Z,18.09
2022-09-15T10:39:06.346Z,18.13
2022-09-15T10:44:57.845Z,18.22
2022-09-15T10:50:13.042Z,18.35
2022-09-15T10:55:58.895Z,18.29
2022-09-15T11:01:26.745Z,18.28
2022-09-15T11:06:54.360Z,18.23
2022-09-15T11:12:35.564Z,18.20
2022-09-15T11:18:23.662Z,18.22
2022-09-15T11:23:47.260Z,18.25
2022-09-15T11:29:22.680Z,18.32
2022-09-15T11:34:34.984Z,18.49
2022-09-15T11:39:58.775Z,18.63
2022-09-15T11:45:03.766Z,18.76
2022-09-15T11:50:28.549Z,18.78
2022-09-15T11:55:40.095Z,18.81
2022-09-15T12:00:54.855Z,18.77
2022-09-15T12:06:08.840Z,18.69
2022-09-15T12:11:23.579Z,18.63
2022-09-15T12:16:29.288Z,18.65
2022-09-15T12:21:37.272Z,18.71
2022-09-15T12:26:43.557Z,18.73
2022-09-15T12:31:47.300Z,18.71
2022-09-15T12:36:56.358Z,18.62
2022-09-15T12:42:20.684Z,18.60
2022-09-15T12:47:30.045Z,18.54
2022-09-15T12:52:47.816Z,18.56
2022-09-15T12:58:10.874Z,18.65
2022-09-15T13:08:56.344Z,18.65
2022-09-15T13:14:07.987Z,18.63
2022-09-15T13:19:20.033Z,18.60
2022-09-15T13:24:59.270Z,18.56
2022-09-15T13:30:24.427Z,18.49
2022-09-15T13:35:52.500Z,18.42
2022-09-15T13:41:40.324Z,18.41
2022-09-15T13:46:50.024Z,18.46
2022-09-15T13:52:10.789Z,18.53
2022-09-15T13:57:14.361Z,18.54
2022-09-15T14:02:17.952Z,18.54
2022-09-15T14:07:25.391Z,18.51
2022-09-15T14:12:29.073Z,18.45
2022-09-15T14:17:33.286Z,18.41
2022-09-15T14:22:36.422Z,18.40
2022-09-15T14:27:43.509Z,18.42
2022-09-15T14:32:52.306Z,18.44
2022-09-15T14:37:58.942Z,18.42
2022-09-15T14:43:03.396Z,18.38
2022-09-15T14:48:28.493Z,18.33
2022-09-15T14:53:38.160Z,18.28
2022-09-15T14:59:02.513Z,18.23
2022-09-15T15:04:16.758Z,18.22
2022-09-15T15:09:32.302Z,18.27
2022-09-15T15:14:36.487Z,18.30
2022-09-15T15:19:42.508Z,18.30
2022-09-15T15:24:50.265Z,18.27
2022-09-15T15:29:53.820Z,18.24
2022-09-15T15:35:01.484Z,18.20
2022-09-15T15:40:14.319Z,18.16
2022-09-15T15:45:25.783Z,18.10
2022-09-15T15:50:32.482Z,18.10
2022-09-15T15:55:44.258Z,18.15
2022-09-15T16:00:56.975Z,18.21
2022-09-15T16:06:00.650Z,18.23
2022-09-15T16:11:04.875Z,18.19
2022-09-15T16:16:25.598Z,18.13
2022-09-15T16:21:37.282Z,18.04
2022-09-15T16:26:41.656Z,17.95
2022-09-15T16:31:45.719Z,17.92
2022-09-15T16:36:48.915Z,17.92
2022-09-15T16:41:51.902Z,17.93
2022-09-15T16:46:55.237Z,17.91
2022-09-15T16:51:58.630Z,17.82
2022-09-15T16:57:01.867Z,17.80
2022-09-15T17:02:14.187Z,17.71
2022-09-15T17:07:18.089Z,17.61
2022-09-15T17:12:22.609Z,17.55
2022-09-15T17:17:26.241Z,17.54
2022-09-15T17:22:29.901Z,17.51
2022-09-15T17:27:33.227Z,17.47
2022-09-15T17:32:36.165Z,17.40
2022-09-15T17:37:39.388Z,17.29
2022-09-15T17:42:42.853Z,17.15
2022-09-15T17:47:47.330Z,17.04
2022-09-15T17:52:50.644Z,16.95
2022-09-15T17:57:55.821Z,16.94
2022-09-15T18:03:15.036Z,16.95
2022-09-15T18:08:18.232Z,16.93
2022-09-15T18:13:24.125Z,16.90
2022-09-15T18:18:28.445Z,16.87
2022-09-15T18:23:31.571Z,16.77
2022-09-15T18:28:34.683Z,16.66
2022-09-15T18:33:37.908Z,16.60
2022-09-15T18:38:42.263Z,16.55
2022-09-15T18:43:49.343Z,16.57
2022-09-15T18:48:53.001Z,16.53
2022-09-15T18:53:57.661Z,16.49
2022-09-15T18:59:01.892Z,16.41
2022-09-15T19:04:05.007Z,16.36
2022-09-15T19:09:08.187Z,16.38
2022-09-15T19:14:11.425Z,16.45
2022-09-15T19:19:15.438Z,16.53
2022-09-15T19:24:18.597Z,16.58
2022-09-15T19:29:21.718Z,16.54
2022-09-15T19:34:24.707Z,16.57
2022-09-15T19:39:27.832Z,16.57
2022-09-15T19:44:30.819Z,16.61
2022-09-15T19:49:33.926Z,16.65
2022-09-15T19:54:36.936Z,16.67
2022-09-15T19:59:39.954Z,16.61
2022-09-15T20:10:05.053Z,16.54
2022-09-15T20:15:08.804Z,16.56
2022-09-15T20:20:11.976Z,16.58
2022-09-15T20:25:15.733Z,16.58
2022-09-15T20:30:22.756Z,16.55
2022-09-15T20:35:25.806Z,16.51
2022-09-15T20:40:28.804Z,16.43
2022-09-15T20:45:36.485Z,16.50
2022-09-15T20:50:40.071Z,16.53
2022-09-15T20:55:50.476Z,16.52
2022-09-15T21:01:07.340Z,16.48
2022-09-15T21:06:16.721Z,16.41
2022-09-15T21:11:21.670Z,16.39
2022-09-15T21:16:28.232Z,16.41
2022-09-15T21:21:33.963Z,16.41
2022-09-15T21:27:00.453Z,16.38
2022-09-15T21:32:03.701Z,16.32
2022-09-15T21:37:06.746Z,16.27
2022-09-15T21:42:12.465Z,16.25
2022-09-15T21:47:16.011Z,16.27
2022-09-15T21:52:19.682Z,16.30
2022-09-15T21:57:23.529Z,16.32
2022-09-15T22:02:26.657Z,16.31
2022-09-15T22:07:29.677Z,16.27
2022-09-15T22:12:32.733Z,16.20
2022-09-15T22:17:35.774Z,16.15
2022-09-15T22:22:38.782Z,16.22
2022-09-15T22:27:42.536Z,16.26
2022-09-15T22:32:45.592Z,16.27
2022-09-15T22:37:48.606Z,16.24
2022-09-15T22:42:51.531Z,16.19
2022-09-15T22:47:54.534Z,16.17
2022-09-15T22:52:57.613Z,16.22
2022-09-15T22:58:00.563Z,16.26
2022-09-15T23:03:03.705Z,16.26
2022-09-15T23:08:06.753Z,16.24
2022-09-15T23:13:09.726Z,16.18
2022-09-15T23:18:12.702Z,16.10
2022-09-15T23:23:15.708Z,16.14
2022-09-15T23:28:19.360Z,16.19
2022-09-15T23:33:24.258Z,16.16
2022-09-15T23:38:28.084Z,16.12
2022-09-15T23:43:32.227Z,16.04
2022-09-15T23:48:35.583Z,16.00
2022-09-15T23:53:38.676Z,15.98
2022-09-15T23:58:41.753Z,16.01
